Flight Track Log - Related Links

Times and Time Zones

All times are in EDT time to prevent confusion due to time zone crossing. See the WIG7117 flight status page for this flight to view local times or setup timezone preferences in your user account.

Time Position Orientation Groundspeed Altitude Reporting Facility
EDT Latitude Longitude Course Direction KTS MPH feet Rate Location/Type
10:23PM 42.7486 -73.8028 283° West 75 86 1,000  Level Boston Center
10:24PM 42.7506 -73.8142 283° West 63 72 1,600 1,253 Climbing Boston Center
10:25PM 42.7608 -73.8314 309° West 49 56 2,900 1,091 Climbing Boston Center
10:26PM 42.7689 -73.8569 293° West 78 90 3,800 885 Climbing Boston Center
10:27PM 42.7747 -73.8883 284° West 98 113 4,700 992 Climbing Boston Center
10:28PM 42.7806 -73.9225 283° West 96 110 5,800 1,041 Climbing Boston Center
10:29PM 42.7864 -73.9564 283° West 95 109 6,800 893 Climbing Boston Center
10:30PM 42.7942 -73.9933 286° West 95 109 7,600 645 Climbing Boston Center
10:31PM 42.7997 -74.0361 280° West 110 127 8,100 246 Climbing Boston Center
10:32PM 42.8075 -74.0844 282° West 134 154 8,100 -50 Level Boston Center
10:33PM 42.8150 -74.1328 282° West 134 154 8,000 -50 Descending Boston Center
10:34PM 42.8228 -74.1781 283° West 119 137 8,000  Level Boston Center
10:35PM 42.8303 -74.2208 283° West 119 137 8,000 52 Level Boston Center
10:36PM 42.8339 -74.2633 277° West 124 143 8,100 52 Climbing Boston Center
10:37PM 42.8414 -74.3089 283° West 125 144 8,100  Level Boston Center
10:38PM 42.8511 -74.3547 286° West 116 133 8,100 57 Level Boston Center
10:39PM 42.8547 -74.3886 278° West 116 133 8,200 53 Climbing Boston Center
10:40PM 42.8622 -74.4400 281° West 119 137 8,200  Level Boston Center
10:41PM 42.8697 -74.4828 283° West 120 138 8,200 -50 Level Boston Center
10:42PM 42.8753 -74.5281 280° West 123 142 8,100 -49 Descending Boston Center
10:43PM 42.8847 -74.5711 287° West 122 140 8,100  Level Boston Center
10:44PM 42.8903 -74.6136 280° West 116 133 8,100  Level Boston Center
10:45PM 42.8956 -74.6564 280° West 116 133 8,100  Level Boston Center
10:46PM 42.9053 -74.6992 287° West 117 135 8,100  Level Boston Center
10:47PM 42.9125 -74.7478 281° West 117 135 8,100 -49 Level Boston Center
10:48PM 42.9181 -74.7933 279° West 127 146 8,000  Descending Boston Center
10:49PM 42.9253 -74.8389 282° West 115 132 8,100 50 Climbing Boston Center
10:50PM 42.9308 -74.8789 281° West 117 135 8,100  Level Boston Center
10:51PM 42.9381 -74.9275 281° West 119 137 8,100  Level Boston Center
10:52PM 42.9433 -74.9703 280° West 113 130 8,100  Level Boston Center
10:53PM 42.9528 -75.0131 287° West 118 136 8,100  Level Boston Center
10:54PM 42.9581 -75.0558 280° West 118 136 8,100  Level Boston Center
10:55PM 42.9653 -75.1017 282° West 119 137 8,100  Level Boston Center
10:56PM 42.9725 -75.1472 282° West 122 140 8,100  Level Boston Center
10:57PM 42.9800 -75.1875 284° West 122 140 8,100  Level Boston Center
10:58PM 42.9831 -75.2331 275° West 119 137 8,100  Level Boston Center
10:59PM 42.9944 -75.2789 289° West 122 140 8,100  Level Boston Center
11:00PM 42.9975 -75.3244 275° West 119 137 8,100  Level Boston Center
11:01PM 43.0047 -75.3703 282° West 116 133 8,100 -248 Level Boston Center
11:02PM 43.0117 -75.4189 281° West 125 144 7,600 -645 Descending Boston Center
11:03PM 43.0208 -75.4675 284° West 139 160 6,800 -738 Descending Boston Center
11:04PM 43.0300 -75.5106 286° West 130 150 6,100 -397 Descending Boston Center
11:05PM 43.0414 -75.5567 289° West 124 143 6,000 -347 Descending Boston Center
11:06PM 43.0547 -75.6058 290° West 121 139 5,400 -639 Descending Boston Center
11:07PM 43.0678 -75.6575 289° West 136 157 4,700 -645 Descending Boston Center
11:08PM 43.0769 -75.7006 286° West 134 154 4,100 -347 Descending Boston Center
11:09PM 43.0881 -75.7497 287° West 128 147 4,000 -347 Descending Boston Center
11:10PM 43.1014 -75.7958 292° West 132 152 3,400 -496 Descending Boston Center
11:11PM 43.1125 -75.8447 287° West 134 154 3,000 -197 Descending Boston Center
11:12PM 43.1150 -75.8933 274° West 133 153 3,000 -50 Level Boston Center
11:13PM 43.1136 -75.9417 268° West 129 148 2,900 -545 Descending Boston Center
11:14PM 43.1119 -75.9983 268° West 139 160 1,900 -893 Descending Boston Center
11:15PM 43.1122 -76.0553 270° West 149 171 1,100 -800 Descending Boston Center
11:17PM 43.1000 -76.1000 270° West  Level FlightAware Approximate
11:24PM 43.1112 -76.1063 270° West  Level Estimated
11:25PM 43.1112 -76.1063 270° West  Level Estimated
11:26PM 43.1112 -76.1063 270° West  Level Estimated
11:27PM 43.1112 -76.1063 270° West  Level Estimated
11:28PM 43.1112 -76.1063 270° West  Level Estimated
11:29PM 43.1112 -76.1063 270° West  Level Estimated
11:30PM 43.1112 -76.1063 270° West  Level Estimated
11:31PM 43.1112 -76.1063 270° West  Level Estimated

Login

Don't have an account? Register now (free) for customized features, flight alerts, and more!